LFPM 262200Z AUTO 19016KT 9999 ////// 08/06 Q1015

Les avions qui composent notre flotte

Avion Robin DR400-120

Avion école

F-GAHP
   * tarif promotionnel appliqué pendant la formation des élèves non brevetés


F-GAHP Planche